Time;durP1;ratioP1;P1;durP2;ratioP2;P2;SDS_P1;SDS_P2;PMS_P1;PMS_P2;Temp;Humidity;BMP_temperature;BMP_pressure;BME280_temperature;BME280_humidity;BME280_pressure;Samples;Min_cycle;Max_cycle;Signal;HPM_P1;HPM_P2
2024/01/05 00:00:37;;;;;;;1999.90;999.90;;;3.40;99.90;;;;;;5129068;27;20039;-82
2024/01/05 00:03:03;;;;;;;1999.90;999.90;;;3.40;99.90;;;;;;5105317;27;20058;-83
2024/01/05 00:05:28;;;;;;;1999.90;999.90;;;3.40;99.90;;;;;;5127106;27;20043;-83
2024/01/05 00:07:54;;;;;;;1999.90;999.90;;;3.40;99.90;;;;;;5128778;27;20043;-82
2024/01/05 00:10:20;;;;;;;1999.90;999.90;;;3.40;99.90;;;;;;5118250;27;20075;-83
2024/01/05 00:12:45;;;;;;;1999.90;999.90;;;3.30;99.90;;;;;;5114909;27;20115;-82
2024/01/05 00:15:12;;;;;;;1999.90;999.90;;;3.40;99.90;;;;;;5122154;27;20123;-82
2024/01/05 00:17:38;;;;;;;1999.90;999.90;;;3.30;99.90;;;;;;5127077;27;20097;-82
2024/01/05 00:20:06;;;;;;;1999.90;999.90;;;3.30;99.90;;;;;;5128450;27;20038;-82
2024/01/05 00:22:32;;;;;;;1999.90;999.90;;;3.30;99.90;;;;;;5103369;28;20052;-82
2024/01/05 00:24:58;;;;;;;1999.90;999.90;;;3.20;99.90;;;;;;5118970;27;20467;-82
2024/01/05 00:27:23;;;;;;;1999.90;999.90;;;3.30;99.90;;;;;;5095476;28;20036;-83
2024/01/05 00:29:49;;;;;;;18.77;16.77;;;3.30;99.90;;;;;;5105171;28;20069;-82
2024/01/05 00:32:14;;;;;;;17.67;16.38;;;3.30;99.90;;;;;;5107614;27;20659;-82
2024/01/05 00:34:40;;;;;;;16.80;15.45;;;3.30;99.90;;;;;;5111389;27;20047;-82
2024/01/05 00:37:06;;;;;;;23.48;19.00;;;3.20;99.90;;;;;;5124552;27;20383;-82
2024/01/05 00:39:32;;;;;;;21.92;19.13;;;3.20;99.90;;;;;;5111432;28;20118;-82
2024/01/05 00:41:57;;;;;;;14.65;13.40;;;3.10;99.90;;;;;;5126474;27;20551;-82
2024/01/05 00:44:23;;;;;;;22.92;18.42;;;3.20;99.90;;;;;;5112177;27;20047;-82
2024/01/05 00:46:49;;;;;;;21.05;18.85;;;3.20;99.90;;;;;;5110162;27;20131;-82
2024/01/05 00:49:14;;;;;;;21.48;18.05;;;3.10;99.90;;;;;;5114434;27;20125;-82
2024/01/05 00:51:40;;;;;;;23.70;19.45;;;3.10;99.90;;;;;;5124657;27;20043;-82
2024/01/05 00:54:06;;;;;;;19.20;17.23;;;3.10;99.90;;;;;;5123334;27;20079;-82
2024/01/05 00:56:32;;;;;;;16.70;14.90;;;3.10;99.90;;;;;;5113674;28;20038;-82
2024/01/05 00:58:57;;;;;;;22.08;16.17;;;3.10;99.90;;;;;;5105513;28;20039;-82
2024/01/05 01:01:23;;;;;;;22.80;18.60;;;3.00;99.90;;;;;;5099076;28;20050;-82
2024/01/05 01:03:48;;;;;;;23.27;17.70;;;3.00;99.90;;;;;;5112033;28;20114;-81
2024/01/05 01:06:14;;;;;;;23.83;21.33;;;3.00;99.90;;;;;;5128015;28;20125;-82
2024/01/05 01:08:39;;;;;;;18.75;16.77;;;3.00;99.90;;;;;;5121153;28;20054;-82
2024/01/05 01:11:12;;;;;;;22.67;20.25;;;3.00;99.90;;;;;;5119245;28;20039;-82
2024/01/05 01:13:37;;;;;;;17.75;16.17;;;3.00;99.90;;;;;;5115137;28;20032;-82
2024/01/05 01:16:03;;;;;;;24.50;19.13;;;3.00;99.90;;;;;;5110305;28;20161;-82
2024/01/05 01:18:29;;;;;;;15.15;13.65;;;3.00;99.90;;;;;;5104269;27;20104;-81
2024/01/05 01:20:54;;;;;;;17.38;15.50;;;3.00;99.90;;;;;;5110597;28;20039;-82
2024/01/05 01:23:20;;;;;;;21.30;14.65;;;3.00;99.90;;;;;;5122905;27;20091;-82
2024/01/05 01:25:46;;;;;;;14.35;13.05;;;3.00;99.90;;;;;;5120456;27;20047;-82
2024/01/05 01:28:11;;;;;;;18.48;16.27;;;3.00;99.90;;;;;;5130664;27;20043;-82
2024/01/05 01:30:37;;;;;;;20.52;16.98;;;3.00;99.90;;;;;;5125149;27;20042;-82
2024/01/05 01:33:03;;;;;;;23.30;19.05;;;3.00;99.90;;;;;;5110935;27;20051;-81
2024/01/05 01:35:28;;;;;;;25.85;20.50;;;3.00;99.90;;;;;;5123225;27;20118;-82
2024/01/05 01:37:54;;;;;;;16.90;15.27;;;3.00;99.90;;;;;;5133135;27;20128;-82
2024/01/05 01:40:20;;;;;;;16.60;15.13;;;3.00;99.90;;;;;;5101341;27;20035;-83
2024/01/05 01:42:45;;;;;;;17.67;15.80;;;3.00;99.90;;;;;;5103040;27;20035;-81
2024/01/05 01:45:12;;;;;;;17.20;14.93;;;3.10;99.90;;;;;;5127760;27;20081;-82
2024/01/05 01:47:39;;;;;;;15.20;14.00;;;3.00;99.90;;;;;;5126554;27;20519;-82
2024/01/05 01:50:06;;;;;;;584.08;290.20;;;3.00;99.90;;;;;;5111449;27;20043;-82
2024/01/05 01:52:31;;;;;;;16.60;13.98;;;3.00;99.90;;;;;;5117850;27;20046;-82
2024/01/05 01:54:57;;;;;;;20.50;16.70;;;3.00;99.90;;;;;;5126799;27;20039;-82
2024/01/05 01:57:24;;;;;;;14.20;12.85;;;3.00;99.90;;;;;;5122887;27;20094;-83
2024/01/05 01:59:50;;;;;;;17.92;13.60;;;3.00;99.90;;;;;;5102643;27;20124;-82
2024/01/05 02:02:16;;;;;;;17.60;14.10;;;3.00;99.90;;;;;;5107634;27;20039;-82
2024/01/05 02:04:42;;;;;;;21.13;15.63;;;3.00;99.90;;;;;;5102221;28;20048;-82
2024/01/05 02:07:08;;;;;;;24.17;18.63;;;2.90;99.90;;;;;;5125253;27;20047;-81
2024/01/05 02:09:34;;;;;;;13.57;12.30;;;2.90;99.90;;;;;;5116461;27;20176;-82
2024/01/05 02:12:00;;;;;;;18.15;14.73;;;2.90;99.90;;;;;;5124118;27;20534;-81
2024/01/05 02:14:25;;;;;;;15.57;12.77;;;2.90;99.90;;;;;;5108147;27;20176;-82
2024/01/05 02:16:51;;;;;;;18.42;15.85;;;2.90;99.90;;;;;;5119999;27;20031;-82
2024/01/05 02:19:16;;;;;;;16.77;14.70;;;2.90;99.90;;;;;;5129656;27;20042;-83
2024/01/05 02:21:45;;;;;;;19.02;15.35;;;2.80;99.90;;;;;;5130729;27;20043;-81
2024/01/05 02:24:12;;;;;;;34.75;25.95;;;2.80;99.90;;;;;;5132159;27;20058;-81
2024/01/05 02:26:39;;;;;;;21.63;19.63;;;2.80;99.90;;;;;;5117090;27;20042;-81
2024/01/05 02:29:04;;;;;;;19.35;17.52;;;2.80;99.90;;;;;;5130159;27;20108;-83
2024/01/05 02:31:30;;;;;;;21.40;19.45;;;2.80;99.90;;;;;;5125819;27;20515;-82
2024/01/05 02:33:56;;;;;;;20.80;18.92;;;2.80;99.90;;;;;;5104925;27;20490;-82
2024/01/05 02:36:21;;;;;;;24.60;20.35;;;2.80;99.90;;;;;;5113934;27;20043;-82
2024/01/05 02:38:47;;;;;;;20.27;17.17;;;2.80;99.90;;;;;;5111233;27;20137;-81
2024/01/05 02:41:12;;;;;;;30.90;28.45;;;2.70;99.90;;;;;;5149918;27;20039;-84
2024/01/05 02:43:38;;;;;;;18.58;17.05;;;2.70;99.90;;;;;;5112886;27;20479;-83
2024/01/05 02:46:04;;;;;;;20.73;18.67;;;2.80;99.90;;;;;;5120596;27;20043;-83
2024/01/05 02:48:29;;;;;;;18.23;16.48;;;2.80;99.90;;;;;;5108843;27;20114;-81
2024/01/05 02:50:55;;;;;;;18.40;16.80;;;2.80;99.90;;;;;;5128841;27;20031;-83
2024/01/05 02:53:20;;;;;;;19.33;17.33;;;2.80;99.90;;;;;;5122334;27;20100;-82
2024/01/05 02:55:46;;;;;;;20.63;18.63;;;2.80;99.90;;;;;;5125667;27;20115;-83
2024/01/05 02:58:12;;;;;;;19.27;17.42;;;2.80;99.90;;;;;;5126222;27;20147;-83
2024/01/05 03:00:37;;;;;;;19.15;17.48;;;2.80;99.90;;;;;;5122392;27;20046;-83
2024/01/05 03:03:04;;;;;;;18.67;17.00;;;2.80;99.90;;;;;;5108619;27;20058;-82
2024/01/05 03:05:30;;;;;;;20.25;18.10;;;2.80;99.90;;;;;;5108534;27;20126;-82
2024/01/05 03:07:56;;;;;;;19.23;17.48;;;2.80;99.90;;;;;;5115687;27;20142;-82
2024/01/05 03:10:21;;;;;;;19.00;17.25;;;2.80;99.90;;;;;;5098122;27;20059;-82
2024/01/05 03:12:48;;;;;;;21.10;19.00;;;2.80;99.90;;;;;;5122469;27;20040;-83
2024/01/05 03:15:16;;;;;;;21.55;18.70;;;2.80;99.90;;;;;;5121929;27;20491;-83
2024/01/05 03:17:41;;;;;;;21.30;19.23;;;2.80;99.90;;;;;;5127971;27;20444;-82
2024/01/05 03:20:09;;;;;;;18.92;17.42;;;2.80;99.90;;;;;;5132238;27;20135;-82
2024/01/05 03:22:35;;;;;;;18.92;17.00;;;2.80;99.90;;;;;;5115552;27;20953;-82
2024/01/05 03:25:02;;;;;;;24.08;19.20;;;2.80;99.90;;;;;;5120203;27;20118;-82
2024/01/05 03:27:28;;;;;;;22.98;18.00;;;2.80;99.90;;;;;;5099425;27;20042;-82
2024/01/05 03:29:56;;;;;;;24.48;20.63;;;2.80;99.90;;;;;;5119480;27;20027;-82
2024/01/05 03:32:21;;;;;;;22.13;20.02;;;2.80;99.90;;;;;;5097390;27;20050;-82
2024/01/05 03:34:47;;;;;;;1999.90;999.90;;;2.80;99.90;;;;;;5111411;27;20039;-82
2024/01/05 03:37:13;;;;;;;20.20;18.08;;;2.80;99.90;;;;;;5091084;28;20035;-81
2024/01/05 03:39:39;;;;;;;25.08;22.55;;;2.80;99.90;;;;;;5123672;27;20102;-83
2024/01/05 03:42:04;;;;;;;23.15;19.38;;;2.80;99.90;;;;;;5118564;27;20153;-82
2024/01/05 03:44:30;;;;;;;23.88;21.40;;;2.80;99.90;;;;;;5116946;27;20475;-82
2024/01/05 03:46:56;;;;;;;22.83;20.13;;;2.80;99.90;;;;;;5126846;27;20039;-82
2024/01/05 03:49:22;;;;;;;32.33;23.52;;;2.80;99.90;;;;;;5119618;27;20074;-82
2024/01/05 03:51:47;;;;;;;17.90;16.45;;;2.80;99.90;;;;;;5108899;27;20046;-82
2024/01/05 03:54:13;;;;;;;22.02;19.10;;;2.80;99.90;;;;;;5130320;27;20038;-83
2024/01/05 03:56:46;;;;;;;25.15;19.00;;;2.80;99.90;;;;;;5110324;27;20035;-81
2024/01/05 03:59:12;;;;;;;21.73;18.40;;;2.80;99.90;;;;;;5120395;27;20047;-82
2024/01/05 04:01:46;;;;;;;26.27;22.42;;;2.80;99.90;;;;;;5112030;27;20039;-83
2024/01/05 04:04:12;;;;;;;22.20;19.85;;;2.80;99.90;;;;;;5129563;27;20039;-82
2024/01/05 04:06:38;;;;;;;28.23;25.02;;;2.70;99.90;;;;;;5113196;27;20065;-82
2024/01/05 04:09:04;;;;;;;27.77;24.17;;;2.70;99.90;;;;;;5123052;27;20035;-83
2024/01/05 04:11:30;;;;;;;25.38;23.33;;;2.70;99.90;;;;;;5124080;27;20122;-83
2024/01/05 04:13:57;;;;;;;25.60;23.05;;;2.80;99.90;;;;;;5116753;27;20069;-84
2024/01/05 04:16:22;;;;;;;17.48;15.77;;;2.70;99.90;;;;;;5119189;27;20057;-83
2024/01/05 04:18:49;;;;;;;18.42;16.85;;;2.80;99.90;;;;;;5110348;27;20495;-82
2024/01/05 04:21:14;;;;;;;15.85;14.55;;;2.80;99.90;;;;;;5128260;27;20104;-82
2024/01/05 04:23:43;;;;;;;18.98;17.13;;;2.90;99.90;;;;;;5106143;27;20066;-82
2024/01/05 04:26:08;;;;;;;20.38;17.38;;;2.90;99.90;;;;;;5128706;27;20069;-82
2024/01/05 04:28:34;;;;;;;27.73;20.40;;;2.80;99.90;;;;;;5120985;27;20486;-82
2024/01/05 04:31:00;;;;;;;25.65;22.90;;;2.80;99.90;;;;;;5121314;27;20040;-82
2024/01/05 04:33:25;;;;;;;19.00;17.02;;;2.80;99.90;;;;;;5116682;27;20036;-82
2024/01/05 04:35:51;;;;;;;21.85;19.75;;;2.90;99.90;;;;;;5085307;28;20039;-83
2024/01/05 04:38:17;;;;;;;17.40;16.10;;;2.90;99.90;;;;;;5091477;27;20083;-82
2024/01/05 04:40:43;;;;;;;19.95;17.80;;;2.90;99.90;;;;;;5096682;28;20049;-82
2024/01/05 04:43:08;;;;;;;18.05;16.58;;;2.90;99.90;;;;;;5102869;28;20077;-83
2024/01/05 04:45:37;;;;;;;20.50;18.40;;;2.90;99.90;;;;;;5118498;27;20044;-82
2024/01/05 04:48:03;;;;;;;16.10;14.52;;;2.90;99.90;;;;;;5120596;27;20438;-83
2024/01/05 04:50:29;;;;;;;20.42;18.33;;;2.90;99.90;;;;;;5109842;27;20046;-83
2024/01/05 04:52:54;;;;;;;18.77;17.08;;;2.90;99.90;;;;;;5109522;28;20152;-83
2024/01/05 04:55:20;;;;;;;20.30;18.30;;;3.00;99.90;;;;;;5124741;27;20039;-82
2024/01/05 04:57:48;;;;;;;22.95;20.52;;;2.90;99.90;;;;;;5091241;28;20043;-82
2024/01/05 05:00:14;;;;;;;17.17;15.45;;;3.00;99.90;;;;;;5121601;28;20050;-83
2024/01/05 05:02:39;;;;;;;18.27;16.73;;;3.00;99.90;;;;;;5103336;28;20039;-82
2024/01/05 05:05:05;;;;;;;19.63;17.60;;;3.00;99.90;;;;;;5110888;28;20101;-82
2024/01/05 05:07:31;;;;;;;18.20;16.50;;;3.00;99.90;;;;;;5109302;28;20576;-82
2024/01/05 05:09:56;;;;;;;18.33;16.92;;;3.00;99.90;;;;;;5110839;28;20060;-83
2024/01/05 05:12:22;;;;;;;18.52;17.02;;;3.00;99.90;;;;;;5098531;28;20051;-84
2024/01/05 05:14:48;;;;;;;17.42;16.00;;;3.00;99.90;;;;;;5119839;28;20758;-82
2024/01/05 05:17:13;;;;;;;22.42;20.40;;;3.00;99.90;;;;;;5104164;28;20071;-82
2024/01/05 05:19:39;;;;;;;21.70;18.88;;;3.10;99.90;;;;;;5117293;28;20046;-82
2024/01/05 05:22:05;;;;;;;21.00;18.83;;;3.00;99.90;;;;;;5097082;28;20488;-83
2024/01/05 05:24:31;;;;;;;18.95;17.27;;;3.00;99.90;;;;;;5099525;28;20046;-83
2024/01/05 05:26:56;;;;;;;17.60;16.13;;;3.10;99.90;;;;;;5120436;28;20043;-82
2024/01/05 05:29:23;;;;;;;21.70;19.52;;;3.20;99.90;;;;;;5109208;28;20507;-82
2024/01/05 05:31:49;;;;;;;19.45;17.70;;;3.10;99.90;;;;;;5096741;28;20039;-82
2024/01/05 05:34:14;;;;;;;18.17;16.50;;;3.10;99.90;;;;;;5127726;28;20118;-82
2024/01/05 05:36:40;;;;;;;18.92;17.25;;;3.10;99.90;;;;;;5108213;28;20479;-83
2024/01/05 05:39:06;;;;;;;19.10;17.20;;;3.10;99.90;;;;;;5115991;28;20525;-82
2024/01/05 05:41:31;;;;;;;19.90;17.95;;;3.10;99.90;;;;;;5133932;27;20039;-83
2024/01/05 05:43:57;;;;;;;16.42;14.98;;;3.10;99.90;;;;;;5113427;28;20074;-82
2024/01/05 05:46:23;;;;;;;25.55;22.05;;;3.20;99.90;;;;;;5106143;28;20421;-82
2024/01/05 05:48:49;;;;;;;21.33;19.27;;;3.10;99.90;;;;;;5121216;28;20035;-82
2024/01/05 05:51:15;;;;;;;14.80;13.70;;;3.20;99.90;;;;;;5124219;28;20054;-83
2024/01/05 05:53:40;;;;;;;19.90;18.15;;;3.20;99.90;;;;;;5117173;28;20153;-83
2024/01/05 05:56:06;;;;;;;18.25;16.65;;;3.30;99.90;;;;;;5126800;28;20065;-82
2024/01/05 05:58:32;;;;;;;21.33;19.15;;;3.20;99.90;;;;;;5127258;28;20039;-82
2024/01/05 06:00:58;;;;;;;17.15;15.73;;;3.20;99.90;;;;;;5127183;28;20046;-82
2024/01/05 06:03:24;;;;;;;16.00;14.88;;;3.20;99.90;;;;;;5101310;28;20035;-82
2024/01/05 06:05:50;;;;;;;21.10;19.00;;;3.20;99.90;;;;;;5111696;27;20802;-82
2024/01/05 06:08:15;;;;;;;19.30;17.55;;;3.20;99.90;;;;;;5120496;27;20534;-82
2024/01/05 06:10:41;;;;;;;18.65;16.80;;;3.20;99.90;;;;;;5125228;27;20130;-83
2024/01/05 06:13:07;;;;;;;20.17;18.25;;;3.20;99.90;;;;;;5111533;27;20041;-82
2024/01/05 06:15:32;;;;;;;16.27;14.98;;;3.20;99.90;;;;;;5125490;27;20039;-82
2024/01/05 06:17:58;;;;;;;17.17;15.70;;;3.30;99.90;;;;;;5108184;28;20096;-85
2024/01/05 06:20:25;;;;;;;18.08;16.45;;;3.30;99.90;;;;;;5120334;27;20047;-82
2024/01/05 06:22:50;;;;;;;21.60;19.30;;;3.20;99.90;;;;;;5105364;27;20054;-83
2024/01/05 06:25:16;;;;;;;18.20;16.42;;;3.20;99.90;;;;;;5094949;27;20044;-83
2024/01/05 06:27:42;;;;;;;15.50;14.35;;;3.20;99.90;;;;;;5106243;27;20043;-82
2024/01/05 06:30:11;;;;;;;16.92;15.38;;;3.30;99.90;;;;;;5123164;27;20043;-83
2024/01/05 06:32:37;;;;;;;19.60;17.65;;;3.20;99.90;;;;;;5115503;27;20088;-82
2024/01/05 06:35:05;;;;;;;22.08;18.98;;;3.20;99.90;;;;;;5111982;27;20043;-83
2024/01/05 06:37:30;;;;;;;19.52;17.83;;;3.20;99.90;;;;;;5100533;28;20047;-83
2024/01/05 06:39:56;;;;;;;18.42;16.65;;;3.30;99.90;;;;;;5125125;27;20031;-82
2024/01/05 06:42:22;;;;;;;19.27;17.40;;;3.30;99.90;;;;;;5130084;27;20047;-82
2024/01/05 06:44:49;;;;;;;16.13;14.73;;;3.30;99.90;;;;;;5104197;28;20032;-83
2024/01/05 06:47:16;;;;;;;18.00;16.50;;;3.40;99.90;;;;;;5113854;27;20046;-83
2024/01/05 06:49:41;;;;;;;19.98;18.02;;;3.40;99.90;;;;;;5097338;27;20063;-82
2024/01/05 06:52:07;;;;;;;19.58;18.08;;;3.40;99.90;;;;;;5098379;27;20070;-83
2024/01/05 06:54:34;;;;;;;16.50;15.05;;;3.30;99.90;;;;;;5109441;27;20031;-82
2024/01/05 06:56:59;;;;;;;20.70;18.55;;;3.40;99.90;;;;;;5098848;27;20080;-82
2024/01/05 06:59:30;;;;;;;21.48;19.20;;;3.40;99.90;;;;;;5124355;27;20041;-82
2024/01/05 07:01:56;;;;;;;21.42;19.20;;;3.40;99.90;;;;;;5098794;28;20036;-83
2024/01/05 07:04:22;;;;;;;18.33;16.58;;;3.40;99.90;;;;;;5125091;27;20035;-83
2024/01/05 07:06:47;;;;;;;22.52;20.17;;;3.40;99.90;;;;;;5113588;27;20046;-82
2024/01/05 07:09:13;;;;;;;19.20;17.30;;;3.40;99.90;;;;;;5110360;28;20047;-83
2024/01/05 07:11:39;;;;;;;21.48;19.33;;;3.40;99.90;;;;;;5121141;27;20437;-83
2024/01/05 07:14:05;;;;;;;21.13;18.30;;;3.40;99.90;;;;;;5126622;27;20076;-84
2024/01/05 07:16:30;;;;;;;18.23;16.63;;;3.40;99.90;;;;;;5109823;27;20035;-83
2024/01/05 07:18:56;;;;;;;17.75;16.08;;;3.50;99.90;;;;;;5105843;27;20034;-82
2024/01/05 07:21:22;;;;;;;20.73;18.55;;;3.50;99.90;;;;;;5117346;27;20035;-82
2024/01/05 07:23:47;;;;;;;23.30;20.10;;;3.50;99.90;;;;;;5126043;27;20136;-83
2024/01/05 07:26:19;;;;;;;19.08;17.15;;;3.50;99.90;;;;;;5125311;27;20510;-85
2024/01/05 07:28:45;;;;;;;19.27;15.38;;;3.50;99.90;;;;;;5104922;27;20051;-83
2024/01/05 07:31:11;;;;;;;19.33;17.27;;;3.50;99.90;;;;;;5108932;28;20055;-82
2024/01/05 07:33:38;;;;;;;22.27;18.88;;;3.50;99.90;;;;;;5119596;27;20039;-83
2024/01/05 07:36:04;;;;;;;20.00;18.15;;;3.50;99.90;;;;;;5119637;27;20092;-82
2024/01/05 07:38:35;;;;;;;18.35;16.70;;;3.50;99.90;;;;;;5129043;27;20119;-84
2024/01/05 07:41:01;;;;;;;19.40;17.50;;;3.50;99.90;;;;;;5108032;27;20398;-82
2024/01/05 07:43:27;;;;;;;20.75;16.75;;;3.50;99.90;;;;;;5126083;27;20049;-83
2024/01/05 07:45:54;;;;;;;19.35;17.48;;;3.50;99.90;;;;;;5101795;27;20039;-85
2024/01/05 07:48:19;;;;;;;20.70;18.88;;;3.50;99.90;;;;;;5105598;27;20075;-83
2024/01/05 07:50:45;;;;;;;21.63;19.40;;;3.50;99.90;;;;;;5116554;27;20507;-83
2024/01/05 07:53:12;;;;;;;23.10;20.70;;;3.50;99.90;;;;;;5112198;27;20039;-83
2024/01/05 07:55:38;;;;;;;21.65;19.65;;;3.50;99.90;;;;;;5112751;27;20402;-82
2024/01/05 07:58:03;;;;;;;21.88;19.63;;;3.60;99.90;;;;;;5120963;27;20126;-82
2024/01/05 08:00:31;;;;;;;20.55;18.65;;;3.60;99.90;;;;;;5125118;27;20035;-83
2024/01/05 08:03:01;;;;;;;19.85;18.05;;;3.60;99.90;;;;;;5117046;27;20031;-82
2024/01/05 08:05:27;;;;;;;23.00;20.48;;;3.60;99.90;;;;;;5121406;27;20036;-82
2024/01/05 08:07:52;;;;;;;23.67;20.90;;;3.70;99.90;;;;;;5120677;27;20039;-83
2024/01/05 08:10:18;;;;;;;20.67;18.60;;;3.60;99.90;;;;;;5104385;27;20054;-83
2024/01/05 08:12:43;;;;;;;20.92;18.88;;;3.70;99.90;;;;;;5111269;27;20034;-83
2024/01/05 08:15:09;;;;;;;18.17;16.60;;;3.70;99.90;;;;;;5102451;27;20043;-84
2024/01/05 08:17:35;;;;;;;24.50;21.80;;;3.80;99.90;;;;;;5111557;27;20039;-83
2024/01/05 08:20:01;;;;;;;17.02;15.57;;;3.80;99.90;;;;;;5126318;27;20035;-83
2024/01/05 08:22:26;;;;;;;21.35;19.25;;;3.80;99.90;;;;;;5117401;27;20055;-83
2024/01/05 08:24:52;;;;;;;21.10;18.92;;;3.70;99.90;;;;;;5128862;27;20411;-82
2024/01/05 08:27:18;;;;;;;25.00;21.85;;;3.80;99.90;;;;;;5118648;27;20130;-83
2024/01/05 08:29:43;;;;;;;18.20;16.70;;;3.80;99.90;;;;;;5107509;27;20050;-83
2024/01/05 08:32:09;;;;;;;25.60;21.15;;;3.80;99.90;;;;;;5110293;27;20051;-82
2024/01/05 08:34:35;;;;;;;19.27;17.08;;;3.80;99.90;;;;;;5103250;28;20038;-83
2024/01/05 08:37:00;;;;;;;19.05;17.38;;;3.80;99.90;;;;;;5098136;27;20075;-83
2024/01/05 08:39:26;;;;;;;17.52;15.95;;;3.90;99.90;;;;;;5124478;27;20471;-84
2024/01/05 08:41:52;;;;;;;25.48;22.75;;;3.90;99.90;;;;;;5110557;27;20039;-83
2024/01/05 08:44:20;;;;;;;25.75;21.77;;;3.90;99.90;;;;;;5108335;28;20503;-83
2024/01/05 08:46:46;;;;;;;20.00;18.10;;;3.90;99.90;;;;;;5115679;27;20039;-82
2024/01/05 08:49:12;;;;;;;19.98;17.98;;;4.00;99.90;;;;;;5124182;27;20050;-82
2024/01/05 08:51:44;;;;;;;27.38;23.30;;;4.00;99.90;;;;;;5093807;28;20121;-83
2024/01/05 08:54:10;;;;;;;26.05;22.42;;;3.90;99.90;;;;;;5114632;27;20092;-83
2024/01/05 08:56:37;;;;;;;23.13;20.42;;;4.00;99.90;;;;;;5124322;27;20395;-82
2024/01/05 08:59:04;;;;;;;23.27;20.80;;;4.00;99.90;;;;;;5110574;27;20537;-84
2024/01/05 09:01:32;;;;;;;22.80;20.58;;;4.00;99.90;;;;;;5105437;28;20084;-84
2024/01/05 09:03:58;;;;;;;19.50;17.70;;;4.00;99.90;;;;;;5117442;28;20035;-82
2024/01/05 09:06:24;;;;;;;25.50;22.83;;;4.10;99.90;;;;;;5103929;28;20069;-83
2024/01/05 09:08:49;;;;;;;24.35;21.95;;;4.00;99.90;;;;;;5109468;28;20569;-82
2024/01/05 09:11:16;;;;;;;24.77;22.38;;;4.10;99.90;;;;;;5112605;28;20050;-83
2024/01/05 09:13:41;;;;;;;26.35;23.48;;;4.10;99.90;;;;;;5108752;28;20047;-84
2024/01/05 09:16:07;;;;;;;22.58;20.65;;;4.10;99.90;;;;;;5111085;28;20122;-83
2024/01/05 09:18:33;;;;;;;24.15;21.85;;;4.10;99.90;;;;;;5121311;28;20060;-83
2024/01/05 09:21:02;;;;;;;18.48;16.88;;;4.10;99.90;;;;;;5108624;28;20039;-82
2024/01/05 09:23:28;;;;;;;19.15;17.33;;;4.20;99.90;;;;;;5102113;28;20058;-83
2024/01/05 09:25:54;;;;;;;20.65;18.80;;;4.20;99.90;;;;;;5096550;28;20566;-83
2024/01/05 09:28:20;;;;;;;20.42;18.65;;;4.20;99.90;;;;;;5128643;28;20050;-83
2024/01/05 09:30:45;;;;;;;20.88;18.95;;;4.20;99.90;;;;;;5090698;28;20038;-83
2024/01/05 09:33:11;;;;;;;22.77;20.67;;;4.20;99.90;;;;;;5103521;28;20083;-84
2024/01/05 09:35:37;;;;;;;21.63;19.73;;;4.20;99.90;;;;;;5116675;28;20146;-84
2024/01/05 09:38:02;;;;;;;20.02;18.45;;;4.20;99.90;;;;;;5123943;27;20042;-82
2024/01/05 09:40:28;;;;;;;22.25;20.15;;;4.20;99.90;;;;;;5095741;28;20537;-83
2024/01/05 09:42:57;;;;;;;22.08;20.17;;;4.20;99.90;;;;;;5113731;27;20039;-84
2024/01/05 09:45:24;;;;;;;28.80;26.63;;;4.30;99.90;;;;;;5099768;27;20039;-83
2024/01/05 09:47:51;;;;;;;24.20;21.90;;;4.20;99.90;;;;;;5101916;28;20039;-83
2024/01/05 09:50:17;;;;;;;24.85;22.55;;;4.30;99.90;;;;;;5112900;27;20043;-83
2024/01/05 09:52:44;;;;;;;21.13;19.45;;;4.30;99.90;;;;;;5110723;27;20039;-83
2024/01/05 09:55:10;;;;;;;26.15;23.88;;;4.30;99.90;;;;;;5127146;27;20112;-82
2024/01/05 09:57:40;;;;;;;23.05;21.02;;;4.30;99.90;;;;;;5101426;27;20084;-83
2024/01/05 10:00:08;;;;;;;19.63;18.13;;;4.40;99.90;;;;;;5125104;27;20083;-83
2024/01/05 10:02:42;;;;;;;25.77;23.17;;;4.40;99.90;;;;;;5132031;27;20817;-83
2024/01/05 10:05:08;;;;;;;25.38;22.67;;;4.50;99.90;;;;;;5121395;27;20104;-82
2024/01/05 10:07:41;;;;;;;24.70;22.20;;;4.50;99.90;;;;;;5103040;27;20099;-83
2024/01/05 10:10:08;;;;;;;29.73;23.65;;;4.50;99.90;;;;;;5126955;27;20449;-83
2024/01/05 10:12:33;;;;;;;21.83;19.83;;;4.60;99.90;;;;;;5102879;27;20039;-82
2024/01/05 10:15:04;;;;;;;24.02;21.65;;;4.60;99.90;;;;;;5125838;27;20396;-83
2024/01/05 10:17:30;;;;;;;27.23;22.77;;;4.60;99.90;;;;;;5111941;27;20043;-83
2024/01/05 10:20:16;;;;;;;24.98;22.48;;;4.70;99.90;;;;;;5121487;27;20038;-82
2024/01/05 10:22:48;;;;;;;27.15;24.33;;;4.70;99.90;;;;;;5103650;28;20047;-83
2024/01/05 10:25:21;;;;;;;26.70;23.30;;;4.80;99.90;;;;;;5106637;27;20440;-83
2024/01/05 10:27:51;;;;;;;24.63;22.15;;;4.70;99.90;;;;;;5099212;28;20031;-82
2024/01/05 10:30:28;;;;;;;23.45;21.38;;;4.80;99.90;;;;;;5113648;27;20035;-84
2024/01/05 10:33:07;;;;;;;23.55;21.27;;;4.70;99.90;;;;;;5109053;27;20395;-83
2024/01/05 10:35:34;;;;;;;25.95;23.30;;;4.80;99.90;;;;;;5121199;27;20040;-83
2024/01/05 10:38:18;;;;;;;23.73;21.30;;;4.80;99.90;;;;;;5115152;27;20119;-83
2024/01/05 10:40:43;;;;;;;25.27;22.58;;;4.80;99.90;;;;;;5117982;27;20417;-82
2024/01/05 10:43:14;;;;;;;26.63;23.58;;;4.80;99.90;;;;;;5106621;28;20045;-83
2024/01/05 10:45:41;;;;;;;25.70;22.80;;;4.80;99.90;;;;;;5123929;27;20046;-83
2024/01/05 10:48:13;;;;;;;25.20;22.70;;;4.80;99.90;;;;;;5101055;28;20043;-83
2024/01/05 10:50:43;;;;;;;24.52;21.92;;;4.80;99.90;;;;;;5101077;27;20050;-83
2024/01/05 10:53:09;;;;;;;30.52;26.02;;;4.90;99.90;;;;;;5090110;28;20543;-83
2024/01/05 10:55:36;;;;;;;26.90;23.92;;;4.90;99.90;;;;;;5124599;27;20027;-83
2024/01/05 10:58:02;;;;;;;24.60;22.08;;;5.00;99.90;;;;;;5123758;27;20073;-82
2024/01/05 11:00:28;;;;;;;29.85;24.52;;;5.10;99.90;;;;;;5104444;27;20074;-83
2024/01/05 11:03:09;;;;;;;22.05;19.98;;;5.10;99.90;;;;;;5112491;27;20122;-82
2024/01/05 11:05:35;;;;;;;23.67;21.17;;;5.10;99.90;;;;;;5113106;27;20047;-83
2024/01/05 11:08:02;;;;;;;21.23;19.13;;;5.20;99.90;;;;;;5124498;27;20031;-83
2024/01/05 11:11:10;;;;;;;23.05;19.88;;;5.10;99.90;;;;;;5107822;27;20034;-82
2024/01/05 11:13:51;;;;;;;20.33;18.00;;;5.10;99.90;;;;;;5117627;27;20403;-83
2024/01/05 11:16:28;;;;;;;21.30;19.17;;;5.20;99.90;;;;;;5121141;27;20051;-83
2024/01/05 11:19:22;;;;;;;28.40;22.90;;;5.10;99.90;;;;;;5100921;27;20036;-83
2024/01/05 11:21:47;;;;;;;32.22;25.15;;;5.10;99.90;;;;;;5111350;27;20060;-84
2024/01/05 11:24:15;;;;;;;24.63;21.95;;;5.10;99.90;;;;;;5116853;27;20843;-83
2024/01/05 11:26:42;;;;;;;26.95;24.23;;;5.20;99.90;;;;;;5108757;28;20403;-83
2024/01/05 11:29:12;;;;;;;25.00;22.23;;;5.20;99.90;;;;;;5120771;27;20048;-84
2024/01/05 11:31:47;;;;;;;24.17;21.20;;;5.20;99.90;;;;;;5118023;27;20035;-83
2024/01/05 11:34:35;;;;;;;24.65;22.27;;;5.20;99.90;;;;;;5120509;27;20059;-82
2024/01/05 11:37:02;;;;;;;24.05;21.58;;;5.20;99.90;;;;;;5128341;27;20118;-83
2024/01/05 11:39:47;;;;;;;24.30;20.50;;;5.20;99.90;;;;;;5118691;27;20513;-83
2024/01/05 11:42:24;;;;;;;20.23;18.08;;;5.20;99.90;;;;;;5108926;27;20110;-82
2024/01/05 11:44:54;;;;;;;26.67;22.52;;;5.20;99.90;;;;;;5099241;27;20127;-83
2024/01/05 11:47:39;;;;;;;26.63;22.95;;;5.20;99.90;;;;;;5126132;27;20042;-83
2024/01/05 11:50:28;;;;;;;24.75;21.33;;;5.30;99.90;;;;;;5119250;27;20090;-83
2024/01/05 11:53:15;;;;;;;31.92;22.50;;;5.30;99.90;;;;;;5110925;27;20154;-84
2024/01/05 11:55:48;;;;;;;28.75;25.17;;;5.20;99.90;;;;;;5104629;28;20105;-84
2024/01/05 11:58:22;;;;;;;22.90;20.60;;;5.20;99.90;;;;;;5110185;27;20411;-83
2024/01/05 12:00:49;;;;;;;21.92;19.55;;;5.30;99.90;;;;;;5108096;27;20039;-83
2024/01/05 12:03:17;;;;;;;24.48;21.40;;;5.30;99.90;;;;;;5122524;27;20047;-83
2024/01/05 12:05:43;;;;;;;26.05;20.77;;;5.30;99.90;;;;;;5122702;27;20481;-83
2024/01/05 12:08:12;;;;;;;29.48;22.70;;;5.40;99.90;;;;;;5112002;27;20042;-83
2024/01/05 12:10:40;;;;;;;24.42;21.58;;;5.40;99.90;;;;;;5101408;27;20567;-82
2024/01/05 12:13:06;;;;;;;26.65;21.73;;;5.40;99.90;;;;;;5115665;27;20039;-83
2024/01/05 12:15:32;;;;;;;32.72;24.65;;;5.40;99.90;;;;;;5128159;27;20031;-83
2024/01/05 12:18:03;;;;;;;19.77;17.88;;;5.40;99.90;;;;;;5108240;28;20118;-82
2024/01/05 12:20:29;;;;;;;27.58;21.55;;;5.50;99.90;;;;;;5104984;27;20027;-83
2024/01/05 12:22:55;;;;;;;26.52;21.45;;;5.50;99.90;;;;;;5101060;27;20141;-83
2024/01/05 12:25:21;;;;;;;29.05;22.33;;;5.50;99.90;;;;;;5126159;27;20129;-84
2024/01/05 12:27:46;;;;;;;31.33;25.35;;;5.60;99.90;;;;;;5124610;27;20071;-83
2024/01/05 12:30:13;;;;;;;27.50;24.35;;;5.60;99.90;;;;;;5124326;27;20118;-83
2024/01/05 12:32:39;;;;;;;23.48;20.60;;;5.70;99.90;;;;;;5120828;27;20043;-83
2024/01/05 12:35:05;;;;;;;29.40;22.33;;;5.70;99.90;;;;;;5110856;27;20061;-82